createdAt,value
2018-05-06T00:00:33.500Z,54.41
2018-05-06T00:01:34.466Z,54.50
2018-05-06T00:02:33.438Z,54.57
2018-05-06T00:03:33.419Z,54.48
2018-05-06T00:04:33.390Z,54.48
2018-05-06T00:05:33.379Z,54.48
2018-05-06T00:06:33.354Z,54.77
2018-05-06T00:07:34.379Z,54.29
2018-05-06T00:08:33.309Z,55.05
2018-05-06T00:09:33.510Z,54.67
2018-05-06T00:10:33.249Z,55.24
2018-05-06T00:11:33.226Z,54.67
2018-05-06T00:12:33.200Z,54.67
2018-05-06T00:13:33.189Z,55.15
2018-05-06T00:14:33.190Z,55.15
2018-05-06T00:15:34.137Z,55.24
2018-05-06T00:16:33.115Z,55.62
2018-05-06T00:17:33.090Z,55.24
2018-05-06T00:18:33.077Z,55.15
2018-05-06T00:19:33.068Z,54.57
2018-05-06T00:20:33.010Z,55.72
2018-05-06T00:21:33.013Z,55.62
2018-05-06T00:22:32.974Z,55.15
2018-05-06T00:23:32.951Z,54.96
2018-05-06T00:24:32.984Z,55.24
2018-05-06T00:25:33.011Z,54.96
2018-05-06T00:26:32.867Z,54.96
2018-05-06T00:27:32.850Z,54.86
2018-05-06T00:28:32.824Z,55.72
2018-05-06T00:29:33.833Z,55.62
2018-05-06T00:30:32.769Z,55.15
2018-05-06T00:31:32.772Z,54.96
2018-05-06T00:32:32.767Z,54.77
2018-05-06T00:33:32.744Z,55.05
2018-05-06T00:34:32.706Z,54.77
2018-05-06T00:35:33.691Z,55.05
2018-05-06T00:36:32.637Z,55.24
2018-05-06T00:37:32.651Z,54.57
2018-05-06T00:38:32.593Z,54.77
2018-05-06T00:39:32.569Z,55.15
2018-05-06T00:40:32.546Z,54.67
2018-05-06T00:41:32.544Z,54.57
2018-05-06T00:42:32.617Z,55.15
2018-05-06T00:43:32.466Z,54.86
2018-05-06T00:44:32.457Z,54.48
2018-05-06T00:45:33.430Z,54.86
2018-05-06T00:46:32.391Z,55.72
2018-05-06T00:47:32.372Z,55.53
2018-05-06T00:48:32.338Z,55.62
2018-05-06T00:49:32.344Z,56.20
2018-05-06T00:50:32.300Z,56.29
2018-05-06T00:51:32.279Z,56.29
2018-05-06T00:52:32.300Z,56.10
2018-05-06T00:53:32.250Z,56.38
2018-05-06T00:54:32.203Z,56.87
2018-05-06T00:55:32.184Z,56.36
2018-05-06T00:56:32.170Z,56.74
2018-05-06T00:57:34.137Z,56.74
2018-05-06T00:58:32.141Z,56.74
2018-05-06T00:59:32.083Z,56.93
2018-05-06T01:00:32.076Z,56.17
2018-05-06T01:01:34.043Z,57.22
2018-05-06T01:02:32.023Z,56.74
2018-05-06T01:03:31.989Z,56.65
2018-05-06T01:04:31.976Z,56.65
2018-05-06T01:05:31.956Z,57.22
2018-05-06T01:06:31.948Z,57.60
2018-05-06T01:07:32.900Z,57.31
2018-05-06T01:08:31.869Z,57.12
2018-05-06T01:09:31.867Z,57.89
2018-05-06T01:10:31.824Z,58.07
2018-05-06T01:11:31.822Z,57.41
2018-05-06T01:12:31.784Z,57.89
2018-05-06T01:13:31.775Z,58.36
2018-05-06T01:14:31.756Z,58.94
2018-05-06T01:15:32.706Z,58.84
2018-05-06T01:16:31.687Z,58.36
2018-05-06T01:17:31.673Z,58.65
2018-05-06T01:18:31.647Z,58.46
2018-05-06T01:19:31.616Z,58.75
2018-05-06T01:20:31.588Z,58.36
2018-05-06T01:21:32.560Z,58.84
2018-05-06T01:22:31.527Z,58.84
2018-05-06T01:23:31.519Z,58.84
2018-05-06T01:24:31.500Z,58.65
2018-05-06T01:25:31.470Z,59.03
2018-05-06T01:26:31.453Z,58.94
2018-05-06T01:27:31.429Z,59.22
2018-05-06T01:28:31.393Z,59.31
2018-05-06T01:29:33.416Z,59.31
2018-05-06T01:30:31.338Z,59.70
2018-05-06T01:31:32.330Z,59.89
2018-05-06T01:32:31.314Z,59.67
2018-05-06T01:33:36.121Z,60.24
2018-05-06T01:34:31.239Z,60.33
2018-05-06T01:35:31.240Z,59.86
2018-05-06T01:36:31.194Z,60.05
2018-05-06T01:37:31.183Z,60.52
2018-05-06T01:38:31.172Z,60.52
2018-05-06T01:39:31.160Z,60.72
2018-05-06T01:40:31.129Z,60.72
2018-05-06T01:41:32.100Z,60.52
2018-05-06T01:42:31.049Z,61.10
2018-05-06T01:43:31.029Z,61.86
2018-05-06T01:44:30.999Z,61.38
2018-05-06T01:45:30.988Z,61.86
2018-05-06T01:46:30.979Z,61.86
2018-05-06T01:47:30.947Z,61.19
2018-05-06T01:48:30.904Z,60.97
2018-05-06T01:49:30.886Z,61.93
2018-05-06T01:50:30.859Z,61.45
2018-05-06T01:51:30.825Z,61.16
2018-05-06T01:52:30.814Z,61.19
2018-05-06T01:53:31.803Z,61.73
2018-05-06T01:54:30.767Z,61.38
2018-05-06T01:55:30.744Z,61.64
2018-05-06T01:56:30.742Z,61.73
2018-05-06T01:57:32.694Z,61.25
2018-05-06T01:58:30.660Z,61.96
2018-05-06T01:59:30.645Z,62.02
2018-05-06T02:00:30.611Z,62.02
2018-05-06T02:01:30.599Z,62.21
2018-05-06T02:02:30.581Z,62.40
2018-05-06T02:03:36.070Z,62.30
2018-05-06T02:04:30.526Z,62.21
2018-05-06T02:05:30.548Z,62.12
2018-05-06T02:06:30.477Z,62.49
2018-05-06T02:07:32.451Z,61.83
2018-05-06T02:08:30.452Z,62.49
2018-05-06T02:09:30.404Z,62.78
2018-05-06T02:10:30.368Z,63.07
2018-05-06T02:11:31.369Z,63.07
2018-05-06T02:12:30.322Z,62.30
2018-05-06T02:13:30.312Z,62.49
2018-05-06T02:14:30.316Z,62.68
2018-05-06T02:15:30.252Z,63.17
2018-05-06T02:16:30.246Z,62.78
2018-05-06T02:17:30.228Z,63.45
2018-05-06T02:18:30.178Z,62.59
2018-05-06T02:19:30.162Z,62.97
2018-05-06T02:20:30.152Z,63.07
2018-05-06T02:21:30.111Z,62.21
2018-05-06T02:22:30.097Z,62.49
2018-05-06T02:23:30.073Z,62.21
2018-05-06T02:24:30.050Z,62.21
2018-05-06T02:25:30.010Z,61.73
2018-05-06T02:26:31.019Z,61.64
2018-05-06T02:27:29.962Z,61.64
2018-05-06T02:28:29.949Z,62.12
2018-05-06T02:29:29.907Z,61.25
2018-05-06T02:30:30.900Z,61.25
2018-05-06T02:31:29.861Z,61.16
2018-05-06T02:32:31.862Z,61.73
2018-05-06T02:33:29.812Z,61.35
2018-05-06T02:34:29.801Z,61.45
2018-05-06T02:35:29.763Z,60.97
2018-05-06T02:36:31.768Z,60.69
2018-05-06T02:37:29.721Z,60.49
2018-05-06T02:38:29.696Z,60.59
2018-05-06T02:39:29.683Z,60.21
2018-05-06T02:40:34.581Z,60.14
2018-05-06T02:41:29.630Z,60.21
2018-05-06T02:42:29.612Z,59.92
2018-05-06T02:43:29.570Z,59.74
2018-05-06T02:44:29.548Z,59.86
2018-05-06T02:45:29.519Z,59.35
2018-05-06T02:46:30.537Z,59.64
2018-05-06T02:47:29.470Z,59.54
2018-05-06T02:48:29.445Z,59.57
2018-05-06T02:49:29.433Z,59.83
2018-05-06T02:50:29.412Z,59.83
2018-05-06T02:51:29.381Z,59.74
2018-05-06T02:52:30.351Z,59.64
2018-05-06T02:53:29.324Z,59.74
2018-05-06T02:54:29.303Z,59.92
2018-05-06T02:55:29.277Z,59.64
2018-05-06T02:56:30.264Z,59.26
2018-05-06T02:57:29.230Z,59.74
2018-05-06T02:58:29.213Z,59.83
2018-05-06T02:59:29.192Z,59.35
2018-05-06T03:00:29.168Z,59.54
2018-05-06T03:01:29.130Z,59.83
2018-05-06T03:02:31.170Z,59.64
2018-05-06T03:03:29.082Z,60.02
2018-05-06T03:04:30.060Z,60.21
2018-05-06T03:05:29.040Z,59.74
2018-05-06T03:06:29.012Z,59.74
2018-05-06T03:07:29.000Z,59.92
2018-05-06T03:08:28.964Z,60.49
2018-05-06T03:09:28.954Z,60.11
2018-05-06T03:10:28.930Z,60.40
2018-05-06T03:11:28.891Z,60.11
2018-05-06T03:12:28.872Z,59.83
2018-05-06T03:13:28.832Z,60.02
2018-05-06T03:14:29.827Z,60.21
2018-05-06T03:15:28.785Z,60.97
2018-05-06T03:16:28.790Z,60.97
2018-05-06T03:17:28.741Z,61.42
2018-05-06T03:18:30.733Z,61.32
2018-05-06T03:19:28.708Z,61.32
2018-05-06T03:20:28.677Z,61.99
2018-05-06T03:21:28.656Z,61.80
2018-05-06T03:22:28.626Z,61.70
2018-05-06T03:23:28.594Z,62.08
2018-05-06T03:24:30.596Z,62.27
2018-05-06T03:25:28.547Z,62.65
2018-05-06T03:26:28.530Z,62.94
2018-05-06T03:27:28.494Z,62.46
2018-05-06T03:28:28.482Z,62.37
2018-05-06T03:29:28.451Z,62.18
2018-05-06T03:30:29.431Z,62.37
2018-05-06T03:31:28.417Z,62.65
2018-05-06T03:32:28.390Z,62.75
2018-05-06T03:33:28.357Z,62.27
2018-05-06T03:34:28.343Z,63.32
2018-05-06T03:35:28.304Z,62.46
2018-05-06T03:36:29.286Z,63.04
2018-05-06T03:37:28.250Z,62.65
2018-05-06T03:38:28.238Z,62.75
2018-05-06T03:39:28.201Z,62.75
2018-05-06T03:40:28.179Z,62.08
2018-05-06T03:41:28.158Z,62.65
2018-05-06T03:42:28.131Z,62.62
2018-05-06T03:43:28.116Z,63.23
2018-05-06T03:44:32.584Z,63.23
2018-05-06T03:45:28.059Z,63.20
2018-05-06T03:46:28.047Z,63.13
2018-05-06T03:47:28.008Z,62.72
2018-05-06T03:48:28.020Z,63.48
2018-05-06T03:49:27.962Z,63.10
2018-05-06T03:50:27.935Z,64.18
2018-05-06T03:51:27.915Z,63.48
2018-05-06T03:52:27.889Z,63.57
2018-05-06T03:53:27.852Z,64.05
2018-05-06T03:54:27.850Z,63.57
2018-05-06T03:55:27.804Z,63.57
2018-05-06T03:56:29.836Z,63.76
2018-05-06T03:57:27.764Z,63.76
2018-05-06T03:58:27.741Z,63.96
2018-05-06T03:59:27.719Z,64.15
2018-05-06T04:00:27.726Z,64.24
2018-05-06T04:01:27.659Z,63.96
2018-05-06T04:02:27.747Z,63.96
2018-05-06T04:03:27.628Z,64.43
2018-05-06T04:04:27.616Z,64.43
2018-05-06T04:05:27.567Z,64.43
2018-05-06T04:06:27.540Z,65.00
2018-05-06T04:07:27.520Z,64.72
2018-05-06T04:08:27.529Z,64.72
2018-05-06T04:09:27.460Z,64.72
2018-05-06T04:10:27.441Z,64.90
2018-05-06T04:11:27.441Z,65.10
2018-05-06T04:12:27.393Z,65.38
2018-05-06T04:13:27.359Z,65.19
2018-05-06T04:14:27.342Z,65.67
2018-05-06T04:15:27.321Z,66.05
2018-05-06T04:16:28.300Z,65.95
2018-05-06T04:17:27.261Z,65.77
2018-05-06T04:18:27.257Z,66.24
2018-05-06T04:19:27.218Z,65.86
2018-05-06T04:20:28.212Z,65.77
2018-05-06T04:21:27.180Z,65.95
2018-05-06T04:22:27.165Z,66.14
2018-05-06T04:23:27.124Z,65.77
2018-05-06T04:24:28.112Z,66.53
2018-05-06T04:25:27.083Z,66.33
2018-05-06T04:26:28.048Z,65.58
2018-05-06T04:27:27.032Z,65.29
2018-05-06T04:28:27.003Z,65.29
2018-05-06T04:29:26.976Z,65.67
2018-05-06T04:30:26.949Z,65.19
2018-05-06T04:31:26.934Z,64.90
2018-05-06T04:32:26.904Z,64.81
2018-05-06T04:33:26.872Z,64.72
2018-05-06T04:34:26.855Z,64.90
2018-05-06T04:35:26.826Z,65.19
2018-05-06T04:36:27.805Z,64.24
2018-05-06T04:37:26.781Z,64.24
2018-05-06T04:38:26.773Z,64.62
2018-05-06T04:39:26.731Z,64.24
2018-05-06T04:40:27.715Z,64.62
2018-05-06T04:41:26.687Z,64.34
2018-05-06T04:42:26.747Z,64.24
2018-05-06T04:43:26.628Z,64.15
2018-05-06T04:44:27.617Z,64.72
2018-05-06T04:45:26.603Z,65.13
2018-05-06T04:46:26.570Z,64.65
2018-05-06T04:47:26.524Z,64.62
2018-05-06T04:48:26.530Z,64.56
2018-05-06T04:49:26.501Z,64.47
2018-05-06T04:50:27.483Z,65.29
2018-05-06T04:51:26.425Z,64.24
2018-05-06T04:52:27.406Z,64.37
2018-05-06T04:53:26.367Z,64.47
2018-05-06T04:54:26.358Z,64.08
2018-05-06T04:55:26.328Z,63.80
2018-05-06T04:56:26.306Z,63.51
2018-05-06T04:57:26.283Z,64.37
2018-05-06T04:58:26.262Z,64.08
2018-05-06T04:59:26.232Z,63.80
2018-05-06T05:00:26.213Z,63.60
2018-05-06T05:01:26.173Z,63.13
2018-05-06T05:02:27.163Z,63.51
2018-05-06T05:03:26.132Z,63.32
2018-05-06T05:04:27.117Z,62.30
2018-05-06T05:05:26.076Z,62.30
2018-05-06T05:06:26.062Z,62.40
2018-05-06T05:07:26.038Z,62.30
2018-05-06T05:08:26.010Z,62.40
2018-05-06T05:09:25.977Z,61.83
2018-05-06T05:10:25.959Z,61.83
2018-05-06T05:11:25.917Z,62.12
2018-05-06T05:12:26.915Z,62.68
2018-05-06T05:13:25.884Z,61.64
2018-05-06T05:14:25.850Z,61.10
2018-05-06T05:15:25.820Z,61.86
2018-05-06T05:16:25.822Z,60.52
2018-05-06T05:17:25.774Z,60.91
2018-05-06T05:18:25.757Z,61.19
2018-05-06T05:19:25.751Z,61.00
2018-05-06T05:20:25.715Z,60.33
2018-05-06T05:21:25.675Z,60.14
2018-05-06T05:22:25.656Z,59.67
2018-05-06T05:23:25.652Z,59.79
2018-05-06T05:24:26.622Z,59.79
2018-05-06T05:25:25.680Z,59.41
2018-05-06T05:26:25.566Z,58.36
2018-05-06T05:27:25.533Z,58.55
2018-05-06T05:28:27.525Z,57.89
2018-05-06T05:29:25.502Z,58.07
2018-05-06T05:30:31.119Z,58.75
2018-05-06T05:31:25.437Z,57.79
2018-05-06T05:32:25.401Z,57.63
2018-05-06T05:33:25.394Z,57.72
2018-05-06T05:34:25.459Z,57.06
2018-05-06T05:35:25.327Z,56.87
2018-05-06T05:36:25.322Z,56.20
2018-05-06T05:37:25.277Z,57.43
2018-05-06T05:38:25.271Z,58.01
2018-05-06T05:39:25.273Z,57.43
2018-05-06T05:40:25.216Z,59.06
2018-05-06T05:41:25.179Z,57.63
2018-05-06T05:42:25.161Z,58.20
2018-05-06T05:43:25.122Z,58.39
2018-05-06T05:44:25.115Z,58.58
2018-05-06T05:45:25.107Z,58.48
2018-05-06T05:46:26.076Z,58.87
2018-05-06T05:47:25.034Z,58.29
2018-05-06T05:48:26.020Z,58.58
2018-05-06T05:49:24.990Z,58.97
2018-05-06T05:50:24.972Z,58.11
2018-05-06T05:51:24.939Z,58.48
2018-05-06T05:52:25.914Z,57.34
2018-05-06T05:53:24.889Z,58.48
2018-05-06T05:54:25.884Z,57.53
2018-05-06T05:55:24.827Z,57.37
2018-05-06T05:56:25.811Z,58.42
2018-05-06T05:57:24.778Z,57.65
2018-05-06T05:58:24.753Z,57.56
2018-05-06T05:59:24.723Z,57.46
2018-05-06T06:00:25.710Z,58.70
2018-05-06T06:01:24.753Z,57.28
2018-05-06T06:02:25.741Z,57.09
2018-05-06T06:03:24.629Z,56.89
2018-05-06T06:04:24.608Z,58.04
2018-05-06T06:05:24.600Z,57.85
2018-05-06T06:06:26.583Z,57.65
2018-05-06T06:07:24.514Z,56.23
2018-05-06T06:08:26.537Z,56.13
2018-05-06T06:09:24.507Z,56.13
2018-05-06T06:10:25.472Z,55.84
2018-05-06T06:11:24.428Z,57.18
2018-05-06T06:12:25.402Z,56.51
2018-05-06T06:13:24.392Z,55.58
2018-05-06T06:14:24.361Z,56.16
2018-05-06T06:15:24.332Z,56.63
2018-05-06T06:16:24.347Z,56.45
2018-05-06T06:17:24.297Z,57.02
2018-05-06T06:18:24.261Z,56.82
2018-05-06T06:19:24.235Z,56.45
2018-05-06T06:20:25.207Z,56.82
2018-05-06T06:21:24.185Z,55.96
2018-05-06T06:22:24.168Z,55.58
2018-05-06T06:23:24.127Z,56.16
2018-05-06T06:24:25.696Z,55.68
2018-05-06T06:25:29.645Z,56.06
2018-05-06T06:26:24.055Z,56.06
2018-05-06T06:27:24.063Z,55.87
2018-05-06T06:28:24.012Z,55.87
2018-05-06T06:29:23.974Z,55.68
2018-05-06T06:30:23.953Z,55.49
2018-05-06T06:31:25.706Z,55.32
2018-05-06T06:32:23.919Z,55.32
2018-05-06T06:33:24.930Z,55.13
2018-05-06T06:34:23.853Z,55.23
2018-05-06T06:35:23.826Z,54.66
2018-05-06T06:36:23.792Z,55.04
2018-05-06T06:37:23.839Z,54.75
2018-05-06T06:38:23.756Z,54.37
2018-05-06T06:39:24.771Z,55.23
2018-05-06T06:40:23.704Z,54.37
2018-05-06T06:41:24.764Z,54.39
2018-05-06T06:42:23.678Z,54.39
2018-05-06T06:43:23.648Z,53.34
2018-05-06T06:44:23.616Z,54.11
2018-05-06T06:45:23.589Z,54.78
2018-05-06T06:46:23.567Z,54.49
2018-05-06T06:47:23.518Z,54.68
2018-05-06T06:48:23.588Z,54.30
2018-05-06T06:49:23.484Z,53.73
2018-05-06T06:50:23.500Z,54.68
2018-05-06T06:51:23.434Z,54.49
2018-05-06T06:52:23.416Z,53.82
2018-05-06T06:53:23.393Z,53.56
2018-05-06T06:54:24.444Z,53.66
2018-05-06T06:55:23.391Z,53.56
2018-05-06T06:56:24.383Z,53.56
2018-05-06T06:57:23.283Z,54.14
2018-05-06T06:58:23.417Z,54.04
2018-05-06T06:59:23.220Z,54.80
2018-05-06T07:00:23.305Z,53.66
2018-05-06T07:01:23.195Z,51.75
2018-05-06T07:02:24.200Z,51.46
2018-05-06T07:03:23.122Z,52.51
2018-05-06T07:04:25.127Z,52.61
2018-05-06T07:05:23.190Z,52.89
2018-05-06T07:06:23.092Z,52.80
2018-05-06T07:07:23.038Z,53.49
2018-05-06T07:08:23.141Z,51.87
2018-05-06T07:09:22.961Z,51.01
2018-05-06T07:10:23.028Z,52.25
2018-05-06T07:11:22.964Z,52.15
2018-05-06T07:12:22.934Z,51.58
2018-05-06T07:13:22.855Z,51.01
2018-05-06T07:14:22.836Z,50.65
2018-05-06T07:15:22.809Z,51.42
2018-05-06T07:16:22.867Z,51.77
2018-05-06T07:17:22.758Z,51.58
2018-05-06T07:18:24.754Z,51.03
2018-05-06T07:19:22.779Z,50.93
2018-05-06T07:20:22.783Z,51.03
2018-05-06T07:21:22.675Z,50.84
2018-05-06T07:22:23.730Z,51.89
2018-05-06T07:23:22.617Z,51.42
2018-05-06T07:24:22.618Z,50.46
2018-05-06T07:25:22.572Z,51.13
2018-05-06T07:26:22.566Z,51.32
2018-05-06T07:27:22.530Z,50.56
2018-05-06T07:28:23.700Z,49.50
2018-05-06T07:29:22.510Z,50.36
2018-05-06T07:30:29.268Z,50.17
2018-05-06T07:31:22.423Z,50.29
2018-05-06T07:32:23.482Z,50.48
2018-05-06T07:33:22.371Z,50.93
2018-05-06T07:34:33.260Z,49.71
2018-05-06T07:35:22.304Z,48.66
2018-05-06T07:36:24.370Z,48.75
2018-05-06T07:37:22.258Z,49.14
2018-05-06T07:38:23.379Z,48.75
2018-05-06T07:39:22.234Z,48.95
2018-05-06T07:40:22.229Z,48.28
2018-05-06T07:41:22.247Z,48.47
2018-05-06T07:42:22.252Z,48.30
2018-05-06T07:43:22.158Z,48.88
2018-05-06T07:44:23.196Z,48.30
2018-05-06T07:45:22.072Z,47.82
2018-05-06T07:46:23.121Z,47.73
2018-05-06T07:47:22.039Z,48.30
2018-05-06T07:48:22.088Z,48.69
2018-05-06T07:49:21.971Z,48.69
2018-05-06T07:50:21.970Z,46.86
2018-05-06T07:51:21.936Z,47.63
2018-05-06T07:52:26.734Z,47.63
2018-05-06T07:53:21.890Z,47.15
2018-05-06T07:54:21.945Z,47.73
2018-05-06T07:55:21.842Z,47.63
2018-05-06T07:56:21.789Z,46.86
2018-05-06T07:57:22.865Z,46.67
2018-05-06T07:58:21.769Z,46.77
2018-05-06T07:59:21.849Z,46.41
2018-05-06T08:00:21.686Z,46.31
2018-05-06T08:01:21.766Z,46.41
2018-05-06T08:02:21.658Z,46.03
2018-05-06T08:03:21.717Z,46.41
2018-05-06T08:04:21.578Z,45.74
2018-05-06T08:05:37.223Z,46.41
2018-05-06T08:06:21.549Z,47.17
2018-05-06T08:07:23.658Z,45.93
2018-05-06T08:08:21.485Z,46.98
2018-05-06T08:09:23.533Z,46.50
2018-05-06T08:10:21.524Z,45.74
2018-05-06T08:11:23.481Z,45.45
2018-05-06T08:12:21.396Z,45.36
2018-05-06T08:13:26.236Z,45.00
2018-05-06T08:14:21.348Z,46.05
2018-05-06T08:15:21.313Z,44.51
2018-05-06T08:16:21.371Z,44.13
2018-05-06T08:17:21.341Z,43.17
2018-05-06T08:18:21.249Z,43.17
2018-05-06T08:19:23.301Z,43.65
2018-05-06T08:20:21.210Z,43.36
2018-05-06T08:21:25.769Z,43.65
2018-05-06T08:22:21.155Z,43.57
2018-05-06T08:23:26.692Z,44.70
2018-05-06T08:24:21.099Z,43.67
2018-05-06T08:25:26.723Z,42.04
2018-05-06T08:26:21.069Z,42.04
2018-05-06T08:27:21.114Z,43.10
2018-05-06T08:28:20.986Z,43.38
2018-05-06T08:29:21.284Z,41.56
2018-05-06T08:30:20.925Z,41.08
2018-05-06T08:31:21.043Z,41.46
2018-05-06T08:32:20.913Z,41.46
2018-05-06T08:33:22.885Z,41.66
2018-05-06T08:34:20.841Z,42.04
2018-05-06T08:35:20.873Z,43.00
2018-05-06T08:36:20.779Z,43.19
2018-05-06T08:37:21.788Z,42.04
2018-05-06T08:38:20.747Z,42.73
2018-05-06T08:39:20.767Z,42.25
2018-05-06T08:40:20.689Z,43.02
2018-05-06T08:41:21.705Z,42.35
2018-05-06T08:42:20.677Z,43.02
2018-05-06T08:43:20.747Z,42.06
2018-05-06T08:44:20.583Z,41.49
2018-05-06T08:45:20.557Z,41.29
2018-05-06T08:46:20.532Z,41.20
2018-05-06T08:47:20.515Z,41.31
2018-05-06T08:48:20.483Z,41.50
2018-05-06T08:49:20.521Z,41.79
2018-05-06T08:50:20.440Z,41.89
2018-05-06T08:51:20.423Z,41.99
2018-05-06T08:52:20.380Z,42.56
2018-05-06T08:53:20.364Z,43.52
2018-05-06T08:54:20.362Z,42.08
2018-05-06T08:55:20.358Z,42.37
2018-05-06T08:56:20.284Z,41.99
2018-05-06T08:57:20.289Z,41.70
2018-05-06T08:58:20.243Z,41.99
2018-05-06T08:59:20.218Z,41.50
2018-05-06T09:00:20.212Z,41.12
2018-05-06T09:01:20.168Z,41.79
2018-05-06T09:02:20.136Z,41.53
2018-05-06T09:03:20.142Z,40.37
2018-05-06T09:04:20.090Z,40.37
2018-05-06T09:05:21.087Z,39.41
2018-05-06T09:06:20.031Z,39.79
2018-05-06T09:07:20.032Z,38.54
2018-05-06T09:08:20.042Z,38.26
2018-05-06T09:09:25.679Z,37.97
2018-05-06T09:10:19.957Z,38.85
2018-05-06T09:11:21.935Z,39.33
2018-05-06T09:12:19.926Z,39.24
2018-05-06T09:13:19.926Z,40.39
2018-05-06T09:14:19.857Z,39.91
2018-05-06T09:15:19.840Z,39.62
2018-05-06T09:16:19.874Z,40.20
2018-05-06T09:17:20.790Z,39.83
2018-05-06T09:18:19.758Z,40.70
2018-05-06T09:19:19.792Z,41.18
2018-05-06T09:20:19.731Z,40.31
2018-05-06T09:21:20.676Z,40.89
2018-05-06T09:22:19.642Z,39.76
2018-05-06T09:23:19.635Z,40.05
2018-05-06T09:24:19.636Z,38.72
2018-05-06T09:25:20.640Z,38.43
2018-05-06T09:26:19.557Z,37.76
2018-05-06T09:27:19.592Z,39.97
2018-05-06T09:28:20.617Z,38.72
2018-05-06T09:29:19.489Z,36.81
2018-05-06T09:30:20.508Z,37.10
2018-05-06T09:31:19.445Z,37.41
2018-05-06T09:32:19.538Z,35.75
2018-05-06T09:33:19.392Z,37.01
2018-05-06T09:34:19.402Z,35.56
2018-05-06T09:35:19.343Z,35.08
2018-05-06T09:36:19.423Z,35.93
2018-05-06T09:37:19.301Z,36.60
2018-05-06T09:38:21.383Z,35.83
2018-05-06T09:39:19.252Z,35.73
2018-05-06T09:40:19.234Z,36.10
2018-05-06T09:41:19.193Z,36.39
2018-05-06T09:42:19.252Z,36.87
2018-05-06T09:43:19.197Z,39.01
2018-05-06T09:44:20.244Z,39.01
2018-05-06T09:45:19.113Z,37.19
2018-05-06T09:46:20.100Z,37.48
2018-05-06T09:47:19.059Z,36.33
2018-05-06T09:48:19.078Z,36.44
2018-05-06T09:49:19.028Z,37.21
2018-05-06T09:50:20.040Z,36.25
2018-05-06T09:51:18.977Z,36.04
2018-05-06T09:52:19.020Z,37.12
2018-05-06T09:53:18.951Z,36.35
2018-05-06T09:54:20.983Z,35.94
2018-05-06T09:55:18.875Z,36.44
2018-05-06T09:56:18.943Z,37.31
2018-05-06T09:57:18.817Z,37.50
2018-05-06T09:58:19.920Z,36.36
2018-05-06T09:59:18.764Z,35.30
2018-05-06T10:00:18.855Z,35.59
2018-05-06T10:01:18.721Z,34.53
2018-05-06T10:02:18.763Z,35.30
2018-05-06T10:03:18.664Z,35.78
2018-05-06T10:04:18.712Z,34.92
2018-05-06T10:05:18.642Z,36.65
2018-05-06T10:06:18.689Z,34.63
2018-05-06T10:07:18.577Z,34.45
2018-05-06T10:08:18.684Z,34.36
2018-05-06T10:09:18.527Z,34.47
2018-05-06T10:10:19.542Z,34.55
2018-05-06T10:11:18.495Z,35.44
2018-05-06T10:12:18.530Z,34.94
2018-05-06T10:13:18.435Z,33.50
2018-05-06T10:14:18.444Z,32.65
2018-05-06T10:15:18.391Z,32.36
2018-05-06T10:16:18.453Z,31.78
2018-05-06T10:17:18.344Z,31.99
2018-05-06T10:18:18.360Z,32.26
2018-05-06T10:19:18.305Z,33.15
2018-05-06T10:20:18.399Z,32.26
2018-05-06T10:21:18.254Z,31.78
2018-05-06T10:22:18.369Z,33.23
2018-05-06T10:23:18.196Z,33.98
2018-05-06T10:24:18.211Z,33.60
2018-05-06T10:25:18.181Z,34.18
2018-05-06T10:26:18.224Z,33.80
2018-05-06T10:27:18.111Z,33.89
2018-05-06T10:28:20.201Z,32.24
2018-05-06T10:29:18.095Z,31.94
2018-05-06T10:30:18.148Z,33.39
2018-05-06T10:31:18.020Z,34.74
2018-05-06T10:32:18.067Z,34.26
2018-05-06T10:33:17.990Z,34.26
2018-05-06T10:34:19.004Z,34.16
2018-05-06T10:35:17.954Z,34.84
2018-05-06T10:36:20.025Z,33.31
2018-05-06T10:37:17.886Z,33.12
2018-05-06T10:38:18.915Z,32.52
2018-05-06T10:39:17.830Z,32.62
2018-05-06T10:40:18.950Z,33.10
2018-05-06T10:41:17.781Z,32.60
2018-05-06T10:42:17.895Z,34.06
2018-05-06T10:43:17.760Z,33.29
2018-05-06T10:44:17.904Z,33.58
2018-05-06T10:45:17.716Z,33.97
2018-05-06T10:46:18.767Z,34.76
2018-05-06T10:47:17.644Z,34.20
2018-05-06T10:48:23.276Z,32.47
2018-05-06T10:49:17.678Z,31.88
2018-05-06T10:50:17.672Z,32.36
2018-05-06T10:51:17.563Z,31.98
2018-05-06T10:52:18.593Z,31.49
2018-05-06T10:53:17.524Z,30.41
2018-05-06T10:54:17.596Z,31.86
2018-05-06T10:55:17.492Z,31.67
2018-05-06T10:56:28.272Z,31.09
2018-05-06T10:57:17.445Z,31.86
2018-05-06T10:58:17.518Z,31.86
2018-05-06T10:59:17.395Z,32.14
2018-05-06T11:00:17.445Z,32.73
2018-05-06T11:01:17.327Z,34.47
2018-05-06T11:02:17.344Z,33.14
2018-05-06T11:03:17.305Z,34.20
2018-05-06T11:04:17.388Z,33.91
2018-05-06T11:05:17.245Z,33.83
2018-05-06T11:06:17.271Z,33.36
2018-05-06T11:07:17.214Z,31.71
2018-05-06T11:08:17.342Z,30.83
2018-05-06T11:09:17.161Z,30.35
2018-05-06T11:10:17.230Z,31.31
2018-05-06T11:11:17.115Z,33.25
2018-05-06T11:12:21.810Z,32.09
2018-05-06T11:13:17.079Z,31.99
2018-05-06T11:14:18.148Z,32.47
2018-05-06T11:15:17.119Z,31.70
2018-05-06T11:16:18.055Z,33.34
2018-05-06T11:17:16.990Z,33.25
2018-05-06T11:18:17.035Z,32.39
2018-05-06T11:19:16.952Z,31.73
2018-05-06T11:20:16.945Z,30.58
2018-05-06T11:21:16.888Z,30.02
2018-05-06T11:22:17.897Z,30.41
2018-05-06T11:23:16.853Z,28.26
2018-05-06T11:24:16.908Z,29.12
2018-05-06T11:25:16.787Z,30.38
2018-05-06T11:26:16.877Z,30.46
2018-05-06T11:27:16.785Z,31.73
2018-05-06T11:28:16.857Z,31.62
2018-05-06T11:29:16.769Z,31.43
2018-05-06T11:30:16.848Z,31.62
2018-05-06T11:31:16.691Z,32.10
2018-05-06T11:32:18.728Z,33.07
2018-05-06T11:33:16.681Z,32.12
2018-05-06T11:34:16.629Z,30.88
2018-05-06T11:35:16.580Z,29.71
2018-05-06T11:36:17.585Z,28.75
2018-05-06T11:37:16.524Z,28.73
2018-05-06T11:38:16.603Z,28.83
2018-05-06T11:39:16.495Z,30.55
2018-05-06T11:40:18.531Z,31.44
2018-05-06T11:41:16.434Z,30.96
2018-05-06T11:42:16.502Z,30.57
2018-05-06T11:43:16.387Z,30.86
2018-05-06T11:44:16.395Z,30.08
2018-05-06T11:45:16.353Z,30.58
2018-05-06T11:46:16.429Z,31.46
2018-05-06T11:47:16.309Z,32.42
2018-05-06T11:48:16.367Z,30.29
2018-05-06T11:49:16.318Z,30.68
2018-05-06T11:50:16.342Z,30.49
2018-05-06T11:51:16.208Z,30.68
2018-05-06T11:52:17.284Z,28.55
2018-05-06T11:53:16.177Z,29.91
2018-05-06T11:54:20.775Z,28.83
2018-05-06T11:55:16.158Z,30.08
2018-05-06T11:56:16.225Z,30.27
2018-05-06T11:57:16.088Z,30.17
2018-05-06T11:58:17.198Z,30.07
2018-05-06T11:59:16.048Z,31.91
2018-05-06T12:00:16.162Z,30.76
2018-05-06T12:01:15.977Z,29.99
2018-05-06T12:02:16.080Z,30.28
2018-05-06T12:03:15.943Z,30.98
2018-05-06T12:04:16.028Z,30.98
2018-05-06T12:05:15.913Z,31.26
2018-05-06T12:06:15.937Z,30.29
2018-05-06T12:07:15.867Z,29.13
2018-05-06T12:08:16.008Z,29.23
2018-05-06T12:09:15.808Z,29.50
2018-05-06T12:10:15.880Z,29.50
2018-05-06T12:11:15.799Z,29.32
2018-05-06T12:12:15.782Z,30.08
2018-05-06T12:13:15.820Z,30.18
2018-05-06T12:14:16.855Z,30.47
2018-05-06T12:15:15.677Z,30.68
2018-05-06T12:16:15.709Z,29.70
2018-05-06T12:17:15.632Z,29.81
2018-05-06T12:18:22.321Z,30.49
2018-05-06T12:19:15.688Z,31.16
2018-05-06T12:20:16.650Z,30.49
2018-05-06T12:21:15.599Z,30.99
2018-05-06T12:22:15.530Z,30.79
2018-05-06T12:23:15.538Z,29.16
2018-05-06T12:24:15.490Z,28.09
2018-05-06T12:25:16.476Z,26.54
2018-05-06T12:26:15.445Z,26.82
2018-05-06T12:27:15.423Z,27.79
2018-05-06T12:28:15.420Z,28.47
2018-05-06T12:29:15.504Z,28.28
2018-05-06T12:30:15.372Z,28.75
2018-05-06T12:31:15.396Z,30.21
2018-05-06T12:32:15.323Z,29.15
2018-05-06T12:33:15.320Z,29.73
2018-05-06T12:34:15.285Z,29.83
2018-05-06T12:35:15.346Z,28.39
2018-05-06T12:36:15.238Z,26.56
2018-05-06T12:37:15.234Z,26.56
2018-05-06T12:38:15.182Z,27.62
2018-05-06T12:39:15.245Z,26.56
2018-05-06T12:40:15.143Z,26.86
2018-05-06T12:41:19.768Z,27.14
2018-05-06T12:42:15.105Z,27.33
2018-05-06T12:43:15.218Z,27.53
2018-05-06T12:44:15.047Z,27.53
2018-05-06T12:45:15.037Z,27.53
2018-05-06T12:46:15.091Z,27.71
2018-05-06T12:47:14.980Z,28.68
2018-05-06T12:48:14.986Z,28.11
2018-05-06T12:49:14.936Z,26.95
2018-05-06T12:50:15.023Z,27.82
2018-05-06T12:51:14.942Z,27.14
2018-05-06T12:52:19.831Z,26.17